sensor_id;sensor_type;location;lat;lon;timestamp;P1;durP1;ratioP1;P2;durP2;ratioP2
58553;SDS011;48119;53.218;6.576;2022-07-23T00:00:01;7.97;;;3.03;;
58553;SDS011;48119;53.218;6.576;2022-07-23T00:02:34;4.85;;;2.47;;
58553;SDS011;48119;53.218;6.576;2022-07-23T00:05:13;4.47;;;2.30;;
58553;SDS011;48119;53.218;6.576;2022-07-23T00:07:43;6.32;;;2.72;;
58553;SDS011;48119;53.218;6.576;2022-07-23T00:10:10;4.13;;;2.30;;
58553;SDS011;48119;53.218;6.576;2022-07-23T00:12:42;3.53;;;2.38;;
58553;SDS011;48119;53.218;6.576;2022-07-23T00:15:09;12.25;;;3.03;;
58553;SDS011;48119;53.218;6.576;2022-07-23T00:17:36;6.20;;;2.30;;
58553;SDS011;48119;53.218;6.576;2022-07-23T00:20:08;3.25;;;1.83;;
58553;SDS011;48119;53.218;6.576;2022-07-23T00:22:45;3.17;;;2.15;;
58553;SDS011;48119;53.218;6.576;2022-07-23T00:25:29;5.35;;;2.20;;
58553;SDS011;48119;53.218;6.576;2022-07-23T00:27:59;4.72;;;2.00;;
58553;SDS011;48119;53.218;6.576;2022-07-23T00:30:40;5.93;;;2.72;;
58553;SDS011;48119;53.218;6.576;2022-07-23T00:33:11;4.75;;;2.38;;
58553;SDS011;48119;53.218;6.576;2022-07-23T00:35:38;6.55;;;2.20;;
58553;SDS011;48119;53.218;6.576;2022-07-23T00:38:11;5.38;;;3.03;;
58553;SDS011;48119;53.218;6.576;2022-07-23T00:40:44;6.47;;;2.45;;
58553;SDS011;48119;53.218;6.576;2022-07-23T00:43:12;4.72;;;2.90;;
58553;SDS011;48119;53.218;6.576;2022-07-23T00:45:41;6.25;;;2.80;;
58553;SDS011;48119;53.218;6.576;2022-07-23T00:48:15;6.57;;;2.72;;
58553;SDS011;48119;53.218;6.576;2022-07-23T00:50:42;15.35;;;3.10;;
58553;SDS011;48119;53.218;6.576;2022-07-23T00:53:14;3.65;;;2.13;;
58553;SDS011;48119;53.218;6.576;2022-07-23T00:55:49;4.00;;;2.45;;
58553;SDS011;48119;53.218;6.576;2022-07-23T00:58:27;4.55;;;2.50;;
58553;SDS011;48119;53.218;6.576;2022-07-23T01:01:02;5.85;;;2.17;;
58553;SDS011;48119;53.218;6.576;2022-07-23T01:03:36;7.10;;;3.10;;
58553;SDS011;48119;53.218;6.576;2022-07-23T01:06:09;7.93;;;3.25;;
58553;SDS011;48119;53.218;6.576;2022-07-23T01:08:41;5.00;;;2.95;;
58553;SDS011;48119;53.218;6.576;2022-07-23T01:11:21;6.88;;;3.80;;
58553;SDS011;48119;53.218;6.576;2022-07-23T01:13:57;5.70;;;3.13;;
58553;SDS011;48119;53.218;6.576;2022-07-23T01:16:24;6.70;;;2.90;;
58553;SDS011;48119;53.218;6.576;2022-07-23T01:19:40;6.97;;;3.10;;
58553;SDS011;48119;53.218;6.576;2022-07-23T01:22:07;8.93;;;2.67;;
58553;SDS011;48119;53.218;6.576;2022-07-23T01:24:38;6.82;;;3.25;;
58553;SDS011;48119;53.218;6.576;2022-07-23T01:27:04;7.22;;;3.65;;
58553;SDS011;48119;53.218;6.576;2022-07-23T01:29:33;8.00;;;3.70;;
58553;SDS011;48119;53.218;6.576;2022-07-23T01:31:59;5.80;;;3.33;;
58553;SDS011;48119;53.218;6.576;2022-07-23T01:34:31;8.57;;;3.80;;
58553;SDS011;48119;53.218;6.576;2022-07-23T01:37:05;6.35;;;3.72;;
58553;SDS011;48119;53.218;6.576;2022-07-23T01:39:30;6.85;;;3.30;;
58553;SDS011;48119;53.218;6.576;2022-07-23T01:42:03;5.55;;;2.90;;
58553;SDS011;48119;53.218;6.576;2022-07-23T01:44:34;7.85;;;3.13;;
58553;SDS011;48119;53.218;6.576;2022-07-23T01:47:01;8.27;;;3.10;;
58553;SDS011;48119;53.218;6.576;2022-07-23T01:49:29;10.65;;;3.70;;
58553;SDS011;48119;53.218;6.576;2022-07-23T01:52:04;7.20;;;3.33;;
58553;SDS011;48119;53.218;6.576;2022-07-23T01:54:39;5.18;;;3.35;;
58553;SDS011;48119;53.218;6.576;2022-07-23T01:57:06;8.05;;;3.75;;
58553;SDS011;48119;53.218;6.576;2022-07-23T01:59:34;6.13;;;2.83;;
58553;SDS011;48119;53.218;6.576;2022-07-23T02:02:02;6.63;;;3.03;;
58553;SDS011;48119;53.218;6.576;2022-07-23T02:04:32;6.55;;;2.67;;
58553;SDS011;48119;53.218;6.576;2022-07-23T02:07:03;7.20;;;2.90;;
58553;SDS011;48119;53.218;6.576;2022-07-23T02:09:32;6.43;;;2.60;;
58553;SDS011;48119;53.218;6.576;2022-07-23T02:12:05;5.53;;;2.92;;
58553;SDS011;48119;53.218;6.576;2022-07-23T02:17:07;5.95;;;3.00;;
58553;SDS011;48119;53.218;6.576;2022-07-23T02:19:33;7.35;;;2.85;;
58553;SDS011;48119;53.218;6.576;2022-07-23T02:21:59;10.50;;;4.32;;
58553;SDS011;48119;53.218;6.576;2022-07-23T02:24:36;5.43;;;3.58;;
58553;SDS011;48119;53.218;6.576;2022-07-23T02:27:03;8.32;;;3.88;;
58553;SDS011;48119;53.218;6.576;2022-07-23T02:29:37;5.82;;;3.08;;
58553;SDS011;48119;53.218;6.576;2022-07-23T02:32:08;7.47;;;3.95;;
58553;SDS011;48119;53.218;6.576;2022-07-23T02:34:43;5.65;;;3.50;;
58553;SDS011;48119;53.218;6.576;2022-07-23T02:37:15;5.85;;;4.03;;
58553;SDS011;48119;53.218;6.576;2022-07-23T02:39:48;8.25;;;4.75;;
58553;SDS011;48119;53.218;6.576;2022-07-23T02:42:15;8.50;;;4.38;;
58553;SDS011;48119;53.218;6.576;2022-07-23T02:44:43;7.70;;;4.70;;
58553;SDS011;48119;53.218;6.576;2022-07-23T02:47:09;7.97;;;4.53;;
58553;SDS011;48119;53.218;6.576;2022-07-23T02:49:39;5.72;;;3.33;;
58553;SDS011;48119;53.218;6.576;2022-07-23T02:52:04;7.22;;;3.22;;
58553;SDS011;48119;53.218;6.576;2022-07-23T02:54:30;6.47;;;3.67;;
58553;SDS011;48119;53.218;6.576;2022-07-23T02:57:02;5.85;;;3.55;;
58553;SDS011;48119;53.218;6.576;2022-07-23T02:59:28;5.05;;;3.78;;
58553;SDS011;48119;53.218;6.576;2022-07-23T03:01:55;6.68;;;3.40;;
58553;SDS011;48119;53.218;6.576;2022-07-23T03:04:21;8.10;;;3.58;;
58553;SDS011;48119;53.218;6.576;2022-07-23T03:06:50;8.27;;;3.63;;
58553;SDS011;48119;53.218;6.576;2022-07-23T03:09:17;5.70;;;3.47;;
58553;SDS011;48119;53.218;6.576;2022-07-23T03:11:54;7.75;;;3.78;;
58553;SDS011;48119;53.218;6.576;2022-07-23T03:14:24;5.35;;;2.95;;
58553;SDS011;48119;53.218;6.576;2022-07-23T03:16:57;9.73;;;3.95;;
58553;SDS011;48119;53.218;6.576;2022-07-23T03:19:27;6.97;;;4.50;;
58553;SDS011;48119;53.218;6.576;2022-07-23T03:21:54;6.05;;;2.95;;
58553;SDS011;48119;53.218;6.576;2022-07-23T03:24:20;6.57;;;3.63;;
58553;SDS011;48119;53.218;6.576;2022-07-23T03:26:52;6.57;;;3.38;;
58553;SDS011;48119;53.218;6.576;2022-07-23T03:29:18;5.45;;;3.33;;
58553;SDS011;48119;53.218;6.576;2022-07-23T03:31:53;6.28;;;2.92;;
58553;SDS011;48119;53.218;6.576;2022-07-23T03:34:29;9.90;;;3.80;;
58553;SDS011;48119;53.218;6.576;2022-07-23T03:36:54;8.20;;;2.97;;
58553;SDS011;48119;53.218;6.576;2022-07-23T03:39:21;12.43;;;3.38;;
58553;SDS011;48119;53.218;6.576;2022-07-23T03:41:51;9.70;;;3.13;;
58553;SDS011;48119;53.218;6.576;2022-07-23T03:44:18;8.50;;;3.28;;
58553;SDS011;48119;53.218;6.576;2022-07-23T03:46:45;3.88;;;2.78;;
58553;SDS011;48119;53.218;6.576;2022-07-23T03:49:11;6.70;;;3.63;;
58553;SDS011;48119;53.218;6.576;2022-07-23T03:51:41;7.40;;;3.58;;
58553;SDS011;48119;53.218;6.576;2022-07-23T03:54:13;7.78;;;3.60;;
58553;SDS011;48119;53.218;6.576;2022-07-23T03:56:40;7.28;;;3.45;;
58553;SDS011;48119;53.218;6.576;2022-07-23T03:59:12;7.57;;;3.47;;
58553;SDS011;48119;53.218;6.576;2022-07-23T04:01:48;17.65;;;3.90;;
58553;SDS011;48119;53.218;6.576;2022-07-23T04:04:23;6.90;;;3.10;;
58553;SDS011;48119;53.218;6.576;2022-07-23T04:06:49;5.75;;;2.80;;
58553;SDS011;48119;53.218;6.576;2022-07-23T04:09:16;5.88;;;4.05;;
58553;SDS011;48119;53.218;6.576;2022-07-23T04:11:45;6.45;;;2.90;;
58553;SDS011;48119;53.218;6.576;2022-07-23T04:14:26;5.18;;;2.78;;
58553;SDS011;48119;53.218;6.576;2022-07-23T04:16:56;5.78;;;3.00;;
58553;SDS011;48119;53.218;6.576;2022-07-23T04:19:28;6.97;;;2.67;;
58553;SDS011;48119;53.218;6.576;2022-07-23T04:21:56;6.03;;;2.70;;
58553;SDS011;48119;53.218;6.576;2022-07-23T04:24:25;3.78;;;2.50;;
58553;SDS011;48119;53.218;6.576;2022-07-23T04:26:54;4.80;;;2.20;;
58553;SDS011;48119;53.218;6.576;2022-07-23T04:29:20;4.90;;;2.00;;
58553;SDS011;48119;53.218;6.576;2022-07-23T04:31:46;5.68;;;3.15;;
58553;SDS011;48119;53.218;6.576;2022-07-23T04:34:26;3.83;;;2.35;;
58553;SDS011;48119;53.218;6.576;2022-07-23T04:36:52;5.10;;;3.03;;
58553;SDS011;48119;53.218;6.576;2022-07-23T04:39:19;4.07;;;1.90;;
58553;SDS011;48119;53.218;6.576;2022-07-23T04:41:46;5.13;;;2.55;;
58553;SDS011;48119;53.218;6.576;2022-07-23T04:44:15;4.47;;;2.47;;
58553;SDS011;48119;53.218;6.576;2022-07-23T04:46:45;4.30;;;2.35;;
58553;SDS011;48119;53.218;6.576;2022-07-23T04:49:23;5.18;;;2.50;;
58553;SDS011;48119;53.218;6.576;2022-07-23T04:52:00;5.68;;;3.15;;
58553;SDS011;48119;53.218;6.576;2022-07-23T04:54:29;5.57;;;2.60;;
58553;SDS011;48119;53.218;6.576;2022-07-23T04:56:55;6.32;;;3.30;;
58553;SDS011;48119;53.218;6.576;2022-07-23T04:59:23;6.00;;;2.53;;
58553;SDS011;48119;53.218;6.576;2022-07-23T05:01:56;4.95;;;2.92;;
58553;SDS011;48119;53.218;6.576;2022-07-23T05:04:27;5.50;;;2.58;;
58553;SDS011;48119;53.218;6.576;2022-07-23T05:07:02;6.68;;;3.08;;
58553;SDS011;48119;53.218;6.576;2022-07-23T05:09:35;7.40;;;2.83;;
58553;SDS011;48119;53.218;6.576;2022-07-23T05:12:11;6.78;;;2.88;;
58553;SDS011;48119;53.218;6.576;2022-07-23T05:14:43;5.07;;;3.00;;
58553;SDS011;48119;53.218;6.576;2022-07-23T05:17:11;5.30;;;2.40;;
58553;SDS011;48119;53.218;6.576;2022-07-23T05:19:54;5.30;;;2.55;;
58553;SDS011;48119;53.218;6.576;2022-07-23T05:22:20;7.55;;;2.92;;
58553;SDS011;48119;53.218;6.576;2022-07-23T05:25:02;4.65;;;2.97;;
58553;SDS011;48119;53.218;6.576;2022-07-23T05:27:34;4.88;;;2.60;;
58553;SDS011;48119;53.218;6.576;2022-07-23T05:30:05;6.97;;;2.60;;
58553;SDS011;48119;53.218;6.576;2022-07-23T05:32:34;5.05;;;1.95;;
58553;SDS011;48119;53.218;6.576;2022-07-23T05:35:10;8.10;;;2.08;;
58553;SDS011;48119;53.218;6.576;2022-07-23T05:37:43;5.25;;;2.38;;
58553;SDS011;48119;53.218;6.576;2022-07-23T05:40:27;3.28;;;1.90;;
58553;SDS011;48119;53.218;6.576;2022-07-23T05:42:55;4.45;;;2.33;;
58553;SDS011;48119;53.218;6.576;2022-07-23T05:45:26;4.50;;;2.28;;
58553;SDS011;48119;53.218;6.576;2022-07-23T05:48:07;6.40;;;2.03;;
58553;SDS011;48119;53.218;6.576;2022-07-23T05:50:32;4.43;;;2.28;;
58553;SDS011;48119;53.218;6.576;2022-07-23T05:53:01;2.95;;;1.85;;
58553;SDS011;48119;53.218;6.576;2022-07-23T05:55:30;3.70;;;1.50;;
58553;SDS011;48119;53.218;6.576;2022-07-23T05:57:59;3.45;;;1.73;;
58553;SDS011;48119;53.218;6.576;2022-07-23T06:00:26;6.22;;;1.98;;
58553;SDS011;48119;53.218;6.576;2022-07-23T06:03:11;6.68;;;1.92;;
58553;SDS011;48119;53.218;6.576;2022-07-23T06:05:39;5.60;;;1.67;;
58553;SDS011;48119;53.218;6.576;2022-07-23T06:08:08;14.95;;;9.82;;
58553;SDS011;48119;53.218;6.576;2022-07-23T06:10:53;8.85;;;1.88;;
58553;SDS011;48119;53.218;6.576;2022-07-23T06:13:29;6.15;;;1.80;;
58553;SDS011;48119;53.218;6.576;2022-07-23T06:15:57;2.10;;;1.20;;
58553;SDS011;48119;53.218;6.576;2022-07-23T06:18:25;3.00;;;1.67;;
58553;SDS011;48119;53.218;6.576;2022-07-23T06:20:58;2.88;;;1.33;;
58553;SDS011;48119;53.218;6.576;2022-07-23T06:23:30;7.53;;;1.50;;
58553;SDS011;48119;53.218;6.576;2022-07-23T06:25:59;4.07;;;1.83;;
58553;SDS011;48119;53.218;6.576;2022-07-23T06:28:26;3.90;;;1.85;;
58553;SDS011;48119;53.218;6.576;2022-07-23T06:30:54;3.95;;;1.80;;
58553;SDS011;48119;53.218;6.576;2022-07-23T06:33:41;2.15;;;1.50;;
58553;SDS011;48119;53.218;6.576;2022-07-23T06:36:18;1.70;;;1.25;;
58553;SDS011;48119;53.218;6.576;2022-07-23T06:38:54;4.45;;;1.95;;
58553;SDS011;48119;53.218;6.576;2022-07-23T06:41:27;3.60;;;2.08;;
58553;SDS011;48119;53.218;6.576;2022-07-23T06:44:02;3.75;;;1.80;;
58553;SDS011;48119;53.218;6.576;2022-07-23T06:46:29;3.40;;;1.35;;
58553;SDS011;48119;53.218;6.576;2022-07-23T06:49:05;3.53;;;1.45;;
58553;SDS011;48119;53.218;6.576;2022-07-23T06:51:41;3.90;;;1.48;;
58553;SDS011;48119;53.218;6.576;2022-07-23T06:54:21;4.90;;;2.17;;
58553;SDS011;48119;53.218;6.576;2022-07-23T06:56:47;3.85;;;1.42;;
58553;SDS011;48119;53.218;6.576;2022-07-23T06:59:28;5.25;;;1.80;;
58553;SDS011;48119;53.218;6.576;2022-07-23T07:02:10;4.20;;;1.63;;
58553;SDS011;48119;53.218;6.576;2022-07-23T07:04:54;2.22;;;1.55;;
58553;SDS011;48119;53.218;6.576;2022-07-23T07:07:42;5.40;;;1.60;;
58553;SDS011;48119;53.218;6.576;2022-07-23T07:10:11;3.17;;;1.60;;
58553;SDS011;48119;53.218;6.576;2022-07-23T07:12:38;3.45;;;1.30;;
58553;SDS011;48119;53.218;6.576;2022-07-23T07:15:05;4.68;;;1.98;;
58553;SDS011;48119;53.218;6.576;2022-07-23T07:17:32;3.00;;;1.33;;
58553;SDS011;48119;53.218;6.576;2022-07-23T07:20:02;2.72;;;0.85;;
58553;SDS011;48119;53.218;6.576;2022-07-23T07:22:36;5.22;;;1.70;;
58553;SDS011;48119;53.218;6.576;2022-07-23T07:25:05;1.42;;;0.75;;
58553;SDS011;48119;53.218;6.576;2022-07-23T07:27:43;3.05;;;0.70;;
58553;SDS011;48119;53.218;6.576;2022-07-23T07:30:11;1.48;;;0.68;;
58553;SDS011;48119;53.218;6.576;2022-07-23T07:32:38;2.83;;;1.10;;
58553;SDS011;48119;53.218;6.576;2022-07-23T07:35:07;1.50;;;0.80;;
58553;SDS011;48119;53.218;6.576;2022-07-23T07:37:41;0.90;;;0.40;;
58553;SDS011;48119;53.218;6.576;2022-07-23T07:40:11;1.00;;;0.40;;
58553;SDS011;48119;53.218;6.576;2022-07-23T07:42:48;0.30;;;0.20;;
58553;SDS011;48119;53.218;6.576;2022-07-23T07:45:15;1.30;;;0.50;;
58553;SDS011;48119;53.218;6.576;2022-07-23T07:47:47;0.57;;;0.38;;
58553;SDS011;48119;53.218;6.576;2022-07-23T07:50:13;1.00;;;0.35;;
58553;SDS011;48119;53.218;6.576;2022-07-23T07:52:49;1.33;;;0.50;;
58553;SDS011;48119;53.218;6.576;2022-07-23T07:55:14;1.02;;;0.50;;
58553;SDS011;48119;53.218;6.576;2022-07-23T07:57:42;2.25;;;0.60;;
58553;SDS011;48119;53.218;6.576;2022-07-23T08:00:09;1.27;;;0.55;;
58553;SDS011;48119;53.218;6.576;2022-07-23T08:02:50;2.97;;;0.60;;
58553;SDS011;48119;53.218;6.576;2022-07-23T08:05:21;1.20;;;0.70;;
58553;SDS011;48119;53.218;6.576;2022-07-23T08:07:51;0.90;;;0.40;;
58553;SDS011;48119;53.218;6.576;2022-07-23T08:10:17;0.77;;;0.50;;
58553;SDS011;48119;53.218;6.576;2022-07-23T08:12:51;2.83;;;0.70;;
58553;SDS011;48119;53.218;6.576;2022-07-23T08:15:33;1.00;;;0.55;;
58553;SDS011;48119;53.218;6.576;2022-07-23T08:18:03;1.83;;;0.65;;
58553;SDS011;48119;53.218;6.576;2022-07-23T08:20:32;0.98;;;0.40;;
58553;SDS011;48119;53.218;6.576;2022-07-23T08:23:05;2.80;;;0.65;;
58553;SDS011;48119;53.218;6.576;2022-07-23T08:25:34;0.75;;;0.57;;
58553;SDS011;48119;53.218;6.576;2022-07-23T08:28:02;1.42;;;0.60;;
58553;SDS011;48119;53.218;6.576;2022-07-23T08:30:30;1.55;;;0.20;;
58553;SDS011;48119;53.218;6.576;2022-07-23T08:35:28;1.15;;;0.55;;
58553;SDS011;48119;53.218;6.576;2022-07-23T08:38:14;2.72;;;0.70;;
58553;SDS011;48119;53.218;6.576;2022-07-23T08:40:43;2.40;;;0.68;;
58553;SDS011;48119;53.218;6.576;2022-07-23T08:43:13;0.50;;;0.40;;
58553;SDS011;48119;53.218;6.576;2022-07-23T08:45:41;1.40;;;0.40;;
58553;SDS011;48119;53.218;6.576;2022-07-23T08:48:15;2.15;;;0.50;;
58553;SDS011;48119;53.218;6.576;2022-07-23T08:50:45;3.20;;;1.00;;
58553;SDS011;48119;53.218;6.576;2022-07-23T08:53:13;1.88;;;0.50;;
58553;SDS011;48119;53.218;6.576;2022-07-23T08:55:40;1.85;;;0.50;;
58553;SDS011;48119;53.218;6.576;2022-07-23T08:58:08;2.15;;;0.57;;
58553;SDS011;48119;53.218;6.576;2022-07-23T09:00:35;2.65;;;0.80;;
58553;SDS011;48119;53.218;6.576;2022-07-23T09:03:02;2.55;;;0.90;;
58553;SDS011;48119;53.218;6.576;2022-07-23T09:05:28;1.35;;;0.63;;
58553;SDS011;48119;53.218;6.576;2022-07-23T09:08:03;0.63;;;0.40;;
58553;SDS011;48119;53.218;6.576;2022-07-23T09:13:29;1.95;;;0.70;;
58553;SDS011;48119;53.218;6.576;2022-07-23T09:16:01;2.28;;;0.75;;
58553;SDS011;48119;53.218;6.576;2022-07-23T09:21:30;3.47;;;0.60;;
58553;SDS011;48119;53.218;6.576;2022-07-23T09:24:01;1.58;;;0.60;;
58553;SDS011;48119;53.218;6.576;2022-07-23T09:26:47;1.95;;;0.70;;
58553;SDS011;48119;53.218;6.576;2022-07-23T09:29:20;1.30;;;0.65;;
58553;SDS011;48119;53.218;6.576;2022-07-23T09:32:13;2.15;;;0.60;;
58553;SDS011;48119;53.218;6.576;2022-07-23T09:34:39;3.25;;;0.70;;
58553;SDS011;48119;53.218;6.576;2022-07-23T09:37:15;1.67;;;0.80;;
58553;SDS011;48119;53.218;6.576;2022-07-23T09:39:45;0.70;;;0.60;;
58553;SDS011;48119;53.218;6.576;2022-07-23T09:42:16;1.98;;;0.60;;
58553;SDS011;48119;53.218;6.576;2022-07-23T09:45:01;1.52;;;0.60;;
58553;SDS011;48119;53.218;6.576;2022-07-23T09:47:36;1.35;;;0.60;;
58553;SDS011;48119;53.218;6.576;2022-07-23T09:50:10;3.65;;;0.88;;
58553;SDS011;48119;53.218;6.576;2022-07-23T09:52:46;0.77;;;0.52;;
58553;SDS011;48119;53.218;6.576;2022-07-23T09:55:14;0.67;;;0.57;;
58553;SDS011;48119;53.218;6.576;2022-07-23T09:57:46;2.55;;;0.98;;
58553;SDS011;48119;53.218;6.576;2022-07-23T10:00:20;1.60;;;0.52;;
58553;SDS011;48119;53.218;6.576;2022-07-23T10:02:49;4.47;;;0.90;;
58553;SDS011;48119;53.218;6.576;2022-07-23T10:05:22;5.07;;;1.10;;
58553;SDS011;48119;53.218;6.576;2022-07-23T10:07:49;2.55;;;1.05;;
58553;SDS011;48119;53.218;6.576;2022-07-23T10:10:16;1.73;;;0.80;;
58553;SDS011;48119;53.218;6.576;2022-07-23T10:12:46;0.80;;;0.60;;
58553;SDS011;48119;53.218;6.576;2022-07-23T10:15:15;1.95;;;0.82;;
58553;SDS011;48119;53.218;6.576;2022-07-23T10:17:42;4.25;;;0.68;;
58553;SDS011;48119;53.218;6.576;2022-07-23T10:20:22;3.20;;;0.85;;
58553;SDS011;48119;53.218;6.576;2022-07-23T10:22:50;6.10;;;1.45;;
58553;SDS011;48119;53.218;6.576;2022-07-23T10:33:48;2.38;;;0.88;;
58553;SDS011;48119;53.218;6.576;2022-07-23T10:36:21;2.93;;;1.00;;
58553;SDS011;48119;53.218;6.576;2022-07-23T10:42:11;3.13;;;1.00;;
58553;SDS011;48119;53.218;6.576;2022-07-23T10:44:56;3.67;;;1.20;;
58553;SDS011;48119;53.218;6.576;2022-07-23T10:47:29;2.60;;;1.02;;
58553;SDS011;48119;53.218;6.576;2022-07-23T10:50:30;2.83;;;0.90;;
58553;SDS011;48119;53.218;6.576;2022-07-23T10:53:15;2.58;;;1.02;;
58553;SDS011;48119;53.218;6.576;2022-07-23T10:58:50;4.15;;;0.88;;
58553;SDS011;48119;53.218;6.576;2022-07-23T11:01:35;1.77;;;1.00;;
58553;SDS011;48119;53.218;6.576;2022-07-23T11:04:05;1.50;;;0.70;;
58553;SDS011;48119;53.218;6.576;2022-07-23T11:07:21;1.73;;;1.08;;
58553;SDS011;48119;53.218;6.576;2022-07-23T11:10:04;7.22;;;1.58;;
58553;SDS011;48119;53.218;6.576;2022-07-23T11:12:32;4.88;;;1.20;;
58553;SDS011;48119;53.218;6.576;2022-07-23T11:20:38;3.33;;;0.85;;
58553;SDS011;48119;53.218;6.576;2022-07-23T11:26:54;6.20;;;1.98;;
58553;SDS011;48119;53.218;6.576;2022-07-23T11:29:40;2.53;;;1.10;;
58553;SDS011;48119;53.218;6.576;2022-07-23T11:35:21;2.38;;;1.15;;
58553;SDS011;48119;53.218;6.576;2022-07-23T11:38:07;2.33;;;1.48;;
58553;SDS011;48119;53.218;6.576;2022-07-23T11:40:49;2.38;;;1.25;;
58553;SDS011;48119;53.218;6.576;2022-07-23T11:43:33;2.90;;;1.20;;
58553;SDS011;48119;53.218;6.576;2022-07-23T11:46:21;1.55;;;0.90;;
58553;SDS011;48119;53.218;6.576;2022-07-23T11:49:02;3.17;;;1.45;;
58553;SDS011;48119;53.218;6.576;2022-07-23T11:51:31;4.65;;;1.50;;
58553;SDS011;48119;53.218;6.576;2022-07-23T11:54:05;3.72;;;1.50;;
58553;SDS011;48119;53.218;6.576;2022-07-23T11:56:32;3.72;;;1.02;;
58553;SDS011;48119;53.218;6.576;2022-07-23T11:59:02;6.05;;;1.73;;
58553;SDS011;48119;53.218;6.576;2022-07-23T12:01:37;4.75;;;1.35;;
58553;SDS011;48119;53.218;6.576;2022-07-23T12:04:40;2.65;;;1.20;;
58553;SDS011;48119;53.218;6.576;2022-07-23T12:07:31;6.43;;;1.50;;
58553;SDS011;48119;53.218;6.576;2022-07-23T12:15:46;3.13;;;1.33;;
58553;SDS011;48119;53.218;6.576;2022-07-23T12:18:24;2.97;;;1.60;;
58553;SDS011;48119;53.218;6.576;2022-07-23T12:21:03;1.50;;;1.05;;
58553;SDS011;48119;53.218;6.576;2022-07-23T12:23:39;2.97;;;1.55;;
58553;SDS011;48119;53.218;6.576;2022-07-23T12:26:24;2.78;;;1.15;;
58553;SDS011;48119;53.218;6.576;2022-07-23T12:28:53;3.67;;;1.60;;
58553;SDS011;48119;53.218;6.576;2022-07-23T12:31:26;5.57;;;1.30;;
58553;SDS011;48119;53.218;6.576;2022-07-23T12:33:57;3.42;;;1.35;;
58553;SDS011;48119;53.218;6.576;2022-07-23T12:36:37;4.47;;;1.20;;
58553;SDS011;48119;53.218;6.576;2022-07-23T12:39:07;1.63;;;1.00;;
58553;SDS011;48119;53.218;6.576;2022-07-23T12:41:52;2.83;;;1.20;;
58553;SDS011;48119;53.218;6.576;2022-07-23T12:44:18;1.90;;;1.10;;
58553;SDS011;48119;53.218;6.576;2022-07-23T12:46:56;1.88;;;0.73;;
58553;SDS011;48119;53.218;6.576;2022-07-23T12:49:27;4.45;;;1.27;;
58553;SDS011;48119;53.218;6.576;2022-07-23T12:51:54;1.77;;;1.30;;
58553;SDS011;48119;53.218;6.576;2022-07-23T12:54:27;2.35;;;0.90;;
58553;SDS011;48119;53.218;6.576;2022-07-23T12:57:03;4.40;;;1.67;;
58553;SDS011;48119;53.218;6.576;2022-07-23T12:59:30;2.17;;;0.88;;
58553;SDS011;48119;53.218;6.576;2022-07-23T13:01:57;3.42;;;0.95;;
58553;SDS011;48119;53.218;6.576;2022-07-23T13:04:32;2.40;;;1.02;;
58553;SDS011;48119;53.218;6.576;2022-07-23T13:07:02;2.30;;;1.52;;
58553;SDS011;48119;53.218;6.576;2022-07-23T13:09:31;4.03;;;1.15;;
58553;SDS011;48119;53.218;6.576;2022-07-23T13:11:59;3.15;;;1.55;;
58553;SDS011;48119;53.218;6.576;2022-07-23T13:14:42;1.77;;;0.90;;
58553;SDS011;48119;53.218;6.576;2022-07-23T13:17:12;1.40;;;1.00;;
58553;SDS011;48119;53.218;6.576;2022-07-23T13:19:49;3.25;;;1.10;;
58553;SDS011;48119;53.218;6.576;2022-07-23T13:22:19;2.58;;;1.23;;
58553;SDS011;48119;53.218;6.576;2022-07-23T13:24:51;3.30;;;1.00;;
58553;SDS011;48119;53.218;6.576;2022-07-23T13:27:19;4.38;;;1.33;;
58553;SDS011;48119;53.218;6.576;2022-07-23T13:29:49;1.95;;;1.02;;
58553;SDS011;48119;53.218;6.576;2022-07-23T13:32:16;2.13;;;1.42;;
58553;SDS011;48119;53.218;6.576;2022-07-23T13:34:49;2.67;;;1.30;;
58553;SDS011;48119;53.218;6.576;2022-07-23T13:37:24;1.50;;;1.00;;
58553;SDS011;48119;53.218;6.576;2022-07-23T13:39:49;1.83;;;1.38;;
58553;SDS011;48119;53.218;6.576;2022-07-23T13:42:16;2.38;;;1.27;;
58553;SDS011;48119;53.218;6.576;2022-07-23T13:44:43;2.17;;;1.15;;
58553;SDS011;48119;53.218;6.576;2022-07-23T13:47:09;1.45;;;1.30;;
58553;SDS011;48119;53.218;6.576;2022-07-23T13:49:36;1.25;;;1.00;;
58553;SDS011;48119;53.218;6.576;2022-07-23T13:52:08;1.50;;;1.00;;
58553;SDS011;48119;53.218;6.576;2022-07-23T13:54:34;2.53;;;1.00;;
58553;SDS011;48119;53.218;6.576;2022-07-23T13:57:12;1.33;;;0.70;;
58553;SDS011;48119;53.218;6.576;2022-07-23T13:59:40;2.50;;;1.17;;
58553;SDS011;48119;53.218;6.576;2022-07-23T14:02:06;3.95;;;1.20;;
58553;SDS011;48119;53.218;6.576;2022-07-23T14:04:33;1.35;;;0.90;;
58553;SDS011;48119;53.218;6.576;2022-07-23T14:06:59;1.70;;;1.10;;
58553;SDS011;48119;53.218;6.576;2022-07-23T14:09:30;2.40;;;1.17;;
58553;SDS011;48119;53.218;6.576;2022-07-23T14:11:59;3.55;;;1.30;;
58553;SDS011;48119;53.218;6.576;2022-07-23T14:14:26;2.67;;;1.15;;
58553;SDS011;48119;53.218;6.576;2022-07-23T14:16:55;4.10;;;1.73;;
58553;SDS011;48119;53.218;6.576;2022-07-23T14:19:21;6.70;;;1.10;;
58553;SDS011;48119;53.218;6.576;2022-07-23T14:21:49;3.60;;;1.45;;
58553;SDS011;48119;53.218;6.576;2022-07-23T14:24:17;5.80;;;1.00;;
58553;SDS011;48119;53.218;6.576;2022-07-23T14:26:49;1.98;;;1.10;;
58553;SDS011;48119;53.218;6.576;2022-07-23T14:29:16;1.60;;;1.00;;
58553;SDS011;48119;53.218;6.576;2022-07-23T14:31:45;5.00;;;1.38;;
58553;SDS011;48119;53.218;6.576;2022-07-23T14:34:10;5.10;;;1.50;;
58553;SDS011;48119;53.218;6.576;2022-07-23T14:36:36;2.88;;;1.05;;
58553;SDS011;48119;53.218;6.576;2022-07-23T14:39:06;3.15;;;1.13;;
58553;SDS011;48119;53.218;6.576;2022-07-23T14:41:34;2.58;;;1.10;;
58553;SDS011;48119;53.218;6.576;2022-07-23T14:44:00;5.38;;;1.45;;
58553;SDS011;48119;53.218;6.576;2022-07-23T14:46:27;1.35;;;0.98;;
58553;SDS011;48119;53.218;6.576;2022-07-23T14:48:53;2.67;;;1.17;;
58553;SDS011;48119;53.218;6.576;2022-07-23T14:51:18;2.53;;;0.98;;
58553;SDS011;48119;53.218;6.576;2022-07-23T14:53:46;3.58;;;1.40;;
58553;SDS011;48119;53.218;6.576;2022-07-23T14:56:11;2.00;;;1.15;;
58553;SDS011;48119;53.218;6.576;2022-07-23T14:58:39;2.45;;;1.40;;
58553;SDS011;48119;53.218;6.576;2022-07-23T15:01:05;2.90;;;1.50;;
58553;SDS011;48119;53.218;6.576;2022-07-23T15:03:31;2.65;;;1.20;;
58553;SDS011;48119;53.218;6.576;2022-07-23T15:06:03;4.03;;;1.40;;
58553;SDS011;48119;53.218;6.576;2022-07-23T15:08:29;2.17;;;1.17;;
58553;SDS011;48119;53.218;6.576;2022-07-23T15:10:59;3.50;;;1.38;;
58553;SDS011;48119;53.218;6.576;2022-07-23T15:13:25;3.83;;;1.98;;
58553;SDS011;48119;53.218;6.576;2022-07-23T15:15:50;1.95;;;1.50;;
58553;SDS011;48119;53.218;6.576;2022-07-23T15:18:16;4.20;;;1.23;;
58553;SDS011;48119;53.218;6.576;2022-07-23T15:20:43;2.47;;;1.10;;
58553;SDS011;48119;53.218;6.576;2022-07-23T15:23:10;5.63;;;1.75;;
58553;SDS011;48119;53.218;6.576;2022-07-23T15:25:36;4.63;;;2.00;;
58553;SDS011;48119;53.218;6.576;2022-07-23T15:28:01;3.17;;;1.50;;
58553;SDS011;48119;53.218;6.576;2022-07-23T15:30:29;1.92;;;1.02;;
58553;SDS011;48119;53.218;6.576;2022-07-23T15:32:56;2.60;;;1.40;;
58553;SDS011;48119;53.218;6.576;2022-07-23T15:35:24;2.25;;;1.25;;
58553;SDS011;48119;53.218;6.576;2022-07-23T15:37:50;4.22;;;1.55;;
58553;SDS011;48119;53.218;6.576;2022-07-23T15:40:26;4.45;;;1.08;;
58553;SDS011;48119;53.218;6.576;2022-07-23T15:42:55;4.30;;;1.90;;
58553;SDS011;48119;53.218;6.576;2022-07-23T15:45:20;1.70;;;1.30;;
58553;SDS011;48119;53.218;6.576;2022-07-23T15:47:47;2.97;;;1.67;;
58553;SDS011;48119;53.218;6.576;2022-07-23T15:50:14;2.90;;;2.10;;
58553;SDS011;48119;53.218;6.576;2022-07-23T15:52:40;3.83;;;1.55;;
58553;SDS011;48119;53.218;6.576;2022-07-23T15:55:06;7.32;;;1.73;;
58553;SDS011;48119;53.218;6.576;2022-07-23T15:57:33;2.95;;;1.98;;